Burnett, Wisconsin
Current Conditions -  °F | °C
As of 9:55 PM on Tuesday 25 Nov 2014 (Local Time) from KUNU Reporting Station
Overcast Overcast  
Wind Chill:   Ceiling: 1600
Heat Index: 17°   Visibility: 10mi
Dew Point: 15°   Wind: 7mph
Humidity: 89%   Direction: 150°SSE
Pressure: 30.14"   Gusts: NA
Location:  43.5°N, 88.71°W
Report Text: KUNU 260355Z AUTO 15006KT 10SM OVC016 M08/M10 A3014 RMK AO2 T10811096
Loading
Personal Weather Stations






























Interactive Weather Map New forecast layout! Learn more

10-Day Weather Forecast

Advertisements
Track Severe Weather on mobile